Time;durP1;ratioP1;P1;durP2;ratioP2;P2;SDS_P1;SDS_P2;PMS_P1;PMS_P2;Temp;Humidity;BMP_temperature;BMP_pressure;BME280_temperature;BME280_humidity;BME280_pressure;Samples;Min_cycle;Max_cycle;Signal;HPM_P1;HPM_P2
2022/04/05 00:02:23;;;;;;;13.65;7.53;;;;;;;4.54;91.83;98446.19;4998666;28;20046;-52
2022/04/05 00:04:48;;;;;;;11.55;8.43;;;;;;;4.56;91.84;98448.63;4991429;28;20048;-55
2022/04/05 00:07:14;;;;;;;12.18;9.25;;;;;;;4.54;91.57;98459.47;4998786;28;20042;-52
2022/04/05 00:09:39;;;;;;;11.85;7.68;;;;;;;4.59;91.88;98453.47;4990986;28;20104;-51
2022/04/05 00:12:05;;;;;;;10.32;7.03;;;;;;;4.59;91.92;98464.09;4990662;28;20038;-53
2022/04/05 00:14:31;;;;;;;14.57;8.77;;;;;;;4.60;92.11;98464.91;4995516;28;20030;-54
2022/04/05 00:16:56;;;;;;;11.50;8.20;;;;;;;4.61;92.09;98471.84;4993499;28;20046;-53
2022/04/05 00:19:22;;;;;;;14.38;8.52;;;;;;;4.63;92.19;98459.16;4991145;28;20452;-49
2022/04/05 00:21:48;;;;;;;11.52;7.93;;;;;;;4.68;91.84;98454.00;4990639;28;20048;-52
2022/04/05 00:24:14;;;;;;;12.20;8.18;;;;;;;4.67;92.17;98455.03;4997285;28;20038;-52
2022/04/05 00:26:40;;;;;;;11.65;7.53;;;;;;;4.65;91.67;98465.88;4996262;28;20133;-52
2022/04/05 00:29:05;;;;;;;12.00;8.85;;;;;;;4.68;92.60;98464.59;4992987;28;20053;-51
2022/04/05 00:31:30;;;;;;;12.20;8.38;;;;;;;4.69;92.00;98466.22;4995900;28;20049;-51
2022/04/05 00:33:56;;;;;;;12.05;8.05;;;;;;;4.67;92.14;98460.34;4998609;28;20469;-54
2022/04/05 00:36:21;;;;;;;12.23;7.53;;;;;;;4.73;91.99;98465.56;4991987;28;20057;-50
2022/04/05 00:38:50;;;;;;;11.13;7.82;;;;;;;4.69;92.31;98458.25;4992539;28;20018;-50
2022/04/05 00:41:15;;;;;;;10.65;7.03;;;;;;;4.71;92.42;98448.22;4990704;28;20493;-49
2022/04/05 00:43:40;;;;;;;10.77;7.55;;;;;;;4.67;92.23;98450.53;4996619;28;20029;-50
2022/04/05 00:46:06;;;;;;;11.75;7.72;;;;;;;4.77;92.13;98455.31;4994339;28;20056;-52
2022/04/05 00:48:49;;;;;;;10.00;7.53;;;;;;;4.76;92.32;98453.69;4993514;28;20117;-53
2022/04/05 00:51:15;;;;;;;9.75;6.60;;;;;;;4.73;92.55;98454.13;4990947;28;20077;-52
2022/04/05 00:53:42;;;;;;;10.85;7.30;;;;;;;4.76;92.33;98461.63;4997589;28;20045;-51
2022/04/05 00:56:07;;;;;;;10.88;7.97;;;;;;;4.77;92.56;98460.63;4988100;28;20054;-50
2022/04/05 00:58:33;;;;;;;10.73;7.55;;;;;;;4.78;92.77;98456.94;4989114;28;20042;-50
2022/04/05 01:00:58;;;;;;;10.93;7.63;;;;;;;4.79;92.79;98455.88;4987697;28;20050;-50
2022/04/05 01:03:24;;;;;;;11.63;7.38;;;;;;;4.82;92.64;98457.28;4988597;28;20034;-49
2022/04/05 01:05:50;;;;;;;12.25;8.30;;;;;;;4.82;92.68;98452.81;4989579;28;20499;-49
2022/04/05 01:08:15;;;;;;;10.02;7.40;;;;;;;4.80;93.09;98454.88;4988711;28;20137;-53
2022/04/05 01:10:41;;;;;;;10.40;7.72;;;;;;;4.83;92.72;98443.78;4993700;28;20053;-51
2022/04/05 01:13:07;;;;;;;9.82;6.53;;;;;;;4.86;92.94;98453.16;4999376;28;20032;-52
2022/04/05 01:15:32;;;;;;;9.88;6.82;;;;;;;4.91;92.55;98440.81;4998731;28;20480;-53
2022/04/05 01:17:58;;;;;;;11.60;7.35;;;;;;;4.82;93.18;98430.72;4993724;28;20034;-51
2022/04/05 01:20:26;;;;;;;10.60;7.15;;;;;;;4.88;92.86;98430.66;4991393;28;20046;-52
2022/04/05 01:22:54;;;;;;;9.65;7.10;;;;;;;4.83;93.35;98433.16;4988210;28;20038;-51
2022/04/05 01:25:20;;;;;;;10.23;6.65;;;;;;;4.90;92.85;98438.41;4998629;28;20034;-49
2022/04/05 01:27:45;;;;;;;9.93;7.05;;;;;;;4.90;93.14;98433.91;4989336;28;20039;-52
2022/04/05 01:30:11;;;;;;;11.75;7.50;;;;;;;4.87;93.04;98431.69;5000367;28;20073;-52
2022/04/05 01:32:37;;;;;;;10.63;6.78;;;;;;;4.83;93.53;98432.38;4995544;28;20385;-51
2022/04/05 01:35:04;;;;;;;9.82;7.03;;;;;;;4.82;93.77;98430.72;4995811;28;20410;-52
2022/04/05 01:37:30;;;;;;;11.95;7.72;;;;;;;4.82;93.81;98428.91;4989398;28;20053;-49
2022/04/05 01:39:55;;;;;;;9.77;6.72;;;;;;;4.93;93.67;98433.44;4989255;28;20041;-51
2022/04/05 01:42:21;;;;;;;9.98;7.40;;;;;;;4.89;93.63;98421.66;4993462;28;20042;-54
2022/04/05 01:44:46;;;;;;;10.10;6.38;;;;;;;4.89;93.62;98418.16;4992443;28;20030;-53
2022/04/05 01:47:15;;;;;;;9.18;6.10;;;;;;;4.86;93.88;98437.22;4996954;28;20444;-54
2022/04/05 01:49:42;;;;;;;10.20;7.18;;;;;;;4.83;93.86;98417.25;4990714;28;20069;-52
2022/04/05 01:52:09;;;;;;;11.77;7.05;;;;;;;4.84;94.32;98415.38;4988530;28;20100;-53
2022/04/05 01:54:34;;;;;;;10.80;6.75;;;;;;;4.85;94.32;98415.19;4990728;28;20477;-52
2022/04/05 01:57:00;;;;;;;9.93;6.85;;;;;;;4.86;94.05;98424.75;4996819;28;20145;-52
2022/04/05 01:59:28;;;;;;;9.23;6.32;;;;;;;4.85;94.45;98415.19;4997003;28;20033;-52
2022/04/05 02:01:54;;;;;;;8.73;6.35;;;;;;;4.91;94.37;98424.88;4992506;28;20111;-52
2022/04/05 02:04:19;;;;;;;10.07;6.85;;;;;;;4.89;94.58;98420.84;4991784;28;20469;-53
2022/04/05 02:06:45;;;;;;;10.43;7.03;;;;;;;4.87;95.04;98422.94;4988178;28;20109;-55
2022/04/05 02:09:14;;;;;;;10.57;7.53;;;;;;;4.80;95.50;98411.56;4992532;28;20472;-49
2022/04/05 02:11:43;;;;;;;10.43;7.40;;;;;;;4.77;95.93;98423.47;4996625;28;20050;-55
2022/04/05 02:14:09;;;;;;;10.13;7.38;;;;;;;4.75;96.17;98410.41;4992586;28;20451;-52
2022/04/05 02:16:34;;;;;;;8.95;6.68;;;;;;;4.80;96.14;98407.06;4986576;28;20061;-52
2022/04/05 02:19:02;;;;;;;11.10;7.25;;;;;;;4.88;96.06;98403.28;4993315;28;20567;-54
2022/04/05 02:21:28;;;;;;;9.77;6.75;;;;;;;4.92;95.85;98405.28;4995275;28;20053;-54
2022/04/05 02:23:53;;;;;;;10.25;7.35;;;;;;;4.85;95.87;98396.59;4994919;28;20030;-54
2022/04/05 02:26:19;;;;;;;10.32;7.03;;;;;;;4.84;96.04;98410.06;4997921;28;20053;-53
2022/04/05 02:28:44;;;;;;;9.13;6.80;;;;;;;4.90;96.25;98404.69;4989330;28;20408;-52
2022/04/05 02:31:11;;;;;;;8.23;6.13;;;;;;;5.01;95.67;98402.28;4993370;28;20058;-54
2022/04/05 02:33:36;;;;;;;11.27;7.35;;;;;;;4.92;96.01;98407.94;4988431;28;20432;-51
2022/04/05 02:36:03;;;;;;;6.90;5.38;;;;;;;4.95;96.08;98410.13;4988349;28;20519;-54
2022/04/05 02:38:29;;;;;;;8.38;5.90;;;;;;;4.98;96.28;98408.88;4988695;28;20019;-52
2022/04/05 02:40:57;;;;;;;7.97;6.07;;;;;;;5.04;95.67;98407.97;4988089;28;20496;-51
2022/04/05 02:43:23;;;;;;;8.90;6.00;;;;;;;5.05;95.74;98408.78;4993140;28;20026;-52
2022/04/05 02:45:49;;;;;;;8.95;6.32;;;;;;;5.01;95.96;98410.25;4993167;28;20412;-51
2022/04/05 02:48:14;;;;;;;8.63;6.10;;;;;;;5.03;96.21;98410.84;4998592;28;20384;-51
2022/04/05 02:50:40;;;;;;;9.73;6.95;;;;;;;5.03;96.42;98402.88;4991966;28;20049;-53
2022/04/05 02:53:05;;;;;;;10.60;6.97;;;;;;;4.95;97.31;98406.66;4993674;28;20465;-53
2022/04/05 02:55:31;;;;;;;9.82;7.05;;;;;;;4.94;97.29;98408.53;4997559;28;20046;-51
2022/04/05 02:57:56;;;;;;;9.82;6.93;;;;;;;4.95;97.50;98404.00;4993078;28;20057;-52
2022/04/05 03:00:22;;;;;;;8.73;6.22;;;;;;;5.00;97.46;98408.66;4990982;28;20080;-53
2022/04/05 03:02:47;;;;;;;11.93;6.95;;;;;;;4.90;97.48;98394.06;4995048;28;20464;-52
2022/04/05 03:05:13;;;;;;;9.05;7.00;;;;;;;4.95;97.62;98399.50;4991772;28;20782;-54
2022/04/05 03:07:38;;;;;;;9.50;6.63;;;;;;;4.93;97.85;98406.06;4994351;28;20029;-52
2022/04/05 03:10:06;;;;;;;10.63;6.60;;;;;;;4.91;97.73;98403.63;4988123;28;20037;-52
2022/04/05 03:12:32;;;;;;;8.88;5.97;;;;;;;4.93;97.97;98406.88;4991658;28;20077;-53
2022/04/05 03:14:57;;;;;;;10.30;7.13;;;;;;;4.92;98.21;98401.81;4988128;28;20038;-53
2022/04/05 03:17:23;;;;;;;9.40;6.53;;;;;;;4.93;97.94;98401.56;4994333;28;20092;-51
2022/04/05 03:19:48;;;;;;;8.75;6.07;;;;;;;4.94;98.05;98407.69;4993307;28;20038;-51
2022/04/05 03:22:16;;;;;;;9.38;6.53;;;;;;;4.98;98.32;98400.91;4993386;28;20039;-51
2022/04/05 03:24:42;;;;;;;10.30;6.40;;;;;;;4.91;98.00;98395.66;4988492;28;20027;-52
2022/04/05 03:27:07;;;;;;;10.85;6.85;;;;;;;4.89;98.57;98400.41;4987750;28;20519;-50
2022/04/05 03:29:32;;;;;;;8.77;6.30;;;;;;;4.93;98.47;98396.25;4991737;28;20497;-52
2022/04/05 03:31:58;;;;;;;8.73;5.90;;;;;;;4.89;99.10;98400.41;4988479;28;20112;-53
2022/04/05 03:34:24;;;;;;;9.18;7.05;;;;;;;4.91;99.44;98392.22;5002946;28;20076;-51
2022/04/05 03:36:49;;;;;;;10.07;6.90;;;;;;;4.88;99.42;98393.47;4994411;28;20046;-51
2022/04/05 03:39:15;;;;;;;20.90;7.43;;;;;;;4.83;100.00;98397.84;4995576;28;20034;-52
2022/04/05 03:41:40;;;;;;;10.13;7.22;;;;;;;4.80;100.00;98388.50;4998147;28;20038;-51
2022/04/05 03:44:06;;;;;;;10.75;7.40;;;;;;;4.75;100.00;98398.97;4991805;28;20105;-52
2022/04/05 03:46:31;;;;;;;11.05;7.03;;;;;;;4.76;100.00;98401.38;4995364;28;20085;-53
2022/04/05 03:48:57;;;;;;;11.18;7.72;;;;;;;4.80;100.00;98399.09;4998615;28;20121;-51
2022/04/05 03:51:22;;;;;;;9.60;6.65;;;;;;;4.81;100.00;98407.88;5000355;28;20038;-51
2022/04/05 03:53:48;;;;;;;11.32;7.35;;;;;;;4.81;100.00;98405.22;4998872;28;20030;-53
2022/04/05 03:56:13;;;;;;;9.70;7.15;;;;;;;4.80;100.00;98395.66;5003762;28;20057;-53
2022/04/05 03:58:39;;;;;;;10.93;7.20;;;;;;;4.77;100.00;98402.22;4994835;28;20038;-52
2022/04/05 04:01:04;;;;;;;10.63;6.35;;;;;;;4.77;100.00;98402.22;4996933;28;20057;-53
2022/04/05 04:03:30;;;;;;;11.23;7.55;;;;;;;4.76;100.00;98397.94;4994088;28;20038;-51
2022/04/05 04:05:55;;;;;;;8.73;5.95;;;;;;;4.72;100.00;98399.44;5001125;28;20061;-51
2022/04/05 04:08:20;;;;;;;11.50;7.72;;;;;;;4.71;100.00;98393.28;5002378;28;20068;-51
2022/04/05 04:10:49;;;;;;;13.43;8.25;;;;;;;4.72;100.00;98399.44;4997071;28;20053;-52
2022/04/05 04:13:15;;;;;;;12.20;7.13;;;;;;;4.71;100.00;98403.09;4991093;28;20034;-51
2022/04/05 04:15:40;;;;;;;9.02;6.28;;;;;;;4.70;100.00;98404.16;4990283;28;20050;-51
2022/04/05 04:18:06;;;;;;;13.18;7.93;;;;;;;4.77;100.00;98402.22;4997715;28;20026;-50
2022/04/05 04:20:31;;;;;;;7.28;5.00;;;;;;;4.77;100.00;98396.91;5004593;28;20511;-50
2022/04/05 04:22:57;;;;;;;9.95;6.85;;;;;;;4.76;100.00;98400.59;4991309;28;20512;-52
2022/04/05 04:25:22;;;;;;;11.35;7.82;;;;;;;4.68;100.00;98399.06;4992158;28;20516;-50
2022/04/05 04:27:48;;;;;;;12.70;8.63;;;;;;;4.70;100.00;98401.50;4995946;28;20053;-51
2022/04/05 04:30:13;;;;;;;11.32;7.57;;;;;;;4.73;100.00;98403.69;5000886;28;20373;-53
2022/04/05 04:32:39;;;;;;;11.70;7.20;;;;;;;4.70;100.00;98397.00;4994269;28;20473;-52
2022/04/05 04:35:05;;;;;;;13.50;8.75;;;;;;;4.72;100.00;98402.09;4995618;28;20034;-51
2022/04/05 04:37:30;;;;;;;13.27;8.52;;;;;;;4.71;100.00;98403.09;4990154;28;20030;-52
2022/04/05 04:39:56;;;;;;;11.15;7.13;;;;;;;4.73;100.00;98401.03;4989307;28;20416;-53
2022/04/05 04:42:21;;;;;;;14.05;8.45;;;;;;;4.72;100.00;98404.75;4993803;28;20556;-51
2022/04/05 04:44:47;;;;;;;9.57;6.57;;;;;;;4.75;100.00;98413.06;4998654;28;20100;-51
2022/04/05 04:47:12;;;;;;;10.50;7.28;;;;;;;4.75;100.00;98410.41;4999388;28;20049;-51
2022/04/05 04:49:38;;;;;;;14.88;7.35;;;;;;;4.75;100.00;98410.41;4990529;28;20030;-51
2022/04/05 04:52:03;;;;;;;10.32;7.00;;;;;;;4.74;100.00;98405.31;4995334;28;20188;-52
2022/04/05 04:54:29;;;;;;;10.18;7.35;;;;;;;4.75;100.00;98420.22;4996628;28;20037;-50
2022/04/05 04:56:54;;;;;;;11.38;7.85;;;;;;;4.77;100.00;98418.16;4994528;28;20065;-52
2022/04/05 04:59:20;;;;;;;11.82;7.30;;;;;;;4.77;100.00;98412.84;4991092;28;20472;-54
2022/04/05 05:01:45;;;;;;;12.10;7.45;;;;;;;4.82;100.00;98415.63;4989479;28;20072;-52
2022/04/05 05:04:10;;;;;;;11.07;7.63;;;;;;;4.81;100.00;98421.16;4999554;28;20033;-53
2022/04/05 05:06:36;;;;;;;11.65;7.97;;;;;;;4.82;100.00;98425.41;4992502;28;20041;-50
2022/04/05 05:09:01;;;;;;;11.10;7.97;;;;;;;4.81;100.00;98418.50;4987302;28;20469;-50
2022/04/05 05:11:27;;;;;;;9.23;6.03;;;;;;;4.87;100.00;98418.41;4994172;28;20075;-49
2022/04/05 05:13:54;;;;;;;12.02;8.10;;;;;;;4.84;100.00;98421.53;4995256;28;20392;-53
2022/04/05 05:16:19;;;;;;;12.88;7.18;;;;;;;4.92;100.00;98426.53;4990276;28;20061;-51
2022/04/05 05:18:45;;;;;;;9.52;6.97;;;;;;;4.95;100.00;98426.06;4996108;28;20034;-53
2022/04/05 05:21:10;;;;;;;8.70;6.25;;;;;;;4.97;99.89;98424.00;4994909;28;20488;-51
2022/04/05 05:23:37;;;;;;;8.00;5.57;;;;;;;5.05;99.49;98430.03;4993045;28;20093;-50
2022/04/05 05:26:02;;;;;;;11.93;8.02;;;;;;;5.00;99.58;98429.91;4996612;28;20466;-49
2022/04/05 05:28:28;;;;;;;11.93;8.20;;;;;;;5.02;99.56;98436.59;4988149;28;20046;-51
2022/04/05 05:30:53;;;;;;;10.90;7.53;;;;;;;5.05;100.00;98432.69;4990244;28;20046;-51
2022/04/05 05:33:19;;;;;;;11.88;7.80;;;;;;;5.13;99.23;98438.47;4992705;28;20037;-51
2022/04/05 05:35:44;;;;;;;12.68;7.78;;;;;;;5.12;99.30;98441.38;4997565;28;20039;-53
2022/04/05 05:38:10;;;;;;;12.05;7.57;;;;;;;5.08;99.62;98437.53;4990321;28;20038;-53
2022/04/05 05:40:35;;;;;;;11.02;7.40;;;;;;;5.08;99.53;98440.19;5000230;28;20046;-52
2022/04/05 05:43:02;;;;;;;17.50;9.07;;;;;;;5.07;100.00;98438.59;4997035;28;20556;-51
2022/04/05 05:45:28;;;;;;;12.02;7.72;;;;;;;5.11;100.00;98445.84;4987530;28;20046;-51
2022/04/05 05:47:54;;;;;;;12.32;7.63;;;;;;;5.09;100.00;98452.44;4997517;28;20500;-53
2022/04/05 05:50:20;;;;;;;12.98;7.38;;;;;;;5.10;100.00;98448.75;4991060;28;20041;-52
2022/04/05 05:52:45;;;;;;;8.18;5.75;;;;;;;5.09;100.00;98450.59;4997455;28;20053;-52
2022/04/05 05:55:12;;;;;;;10.38;7.30;;;;;;;5.12;100.00;98462.63;4993384;28;20026;-52
2022/04/05 05:57:37;;;;;;;9.82;6.35;;;;;;;5.15;100.00;98452.34;4994144;28;20469;-51
2022/04/05 06:00:06;;;;;;;13.65;6.90;;;;;;;5.17;100.00;98457.44;4986922;28;20088;-49
2022/04/05 06:02:32;;;;;;;9.82;6.78;;;;;;;5.28;100.00;98458.50;4993024;28;20030;-50
2022/04/05 06:04:57;;;;;;;7.53;5.10;;;;;;;5.39;98.37;98463.84;4994907;28;20065;-52
2022/04/05 06:07:23;;;;;;;8.95;5.80;;;;;;;5.31;98.93;98474.00;4987855;28;20528;-52
2022/04/05 06:09:48;;;;;;;11.23;6.40;;;;;;;5.26;99.44;98463.22;4987236;28;20037;-53
2022/04/05 06:12:13;;;;;;;9.07;6.72;;;;;;;5.24;99.71;98476.75;4986259;28;20038;-50
2022/04/05 06:14:39;;;;;;;10.55;6.50;;;;;;;5.27;99.79;98471.00;4992297;28;20038;-52
2022/04/05 06:17:04;;;;;;;9.52;6.82;;;;;;;5.31;99.96;98471.34;4986353;28;20053;-55
2022/04/05 06:19:30;;;;;;;9.55;6.63;;;;;;;5.29;99.97;98470.75;4991290;28;20092;-52
2022/04/05 06:21:55;;;;;;;9.45;6.40;;;;;;;5.32;99.40;98471.13;4990162;28;20104;-54
2022/04/05 06:24:21;;;;;;;9.65;6.32;;;;;;;5.39;99.54;98476.31;4992187;28;20784;-52
2022/04/05 06:26:46;;;;;;;9.63;6.03;;;;;;;5.37;98.95;98471.25;4998918;28;20041;-53
2022/04/05 06:29:12;;;;;;;8.10;5.38;;;;;;;5.36;99.22;98480.22;4993874;28;20043;-51
2022/04/05 06:31:37;;;;;;;8.77;6.13;;;;;;;5.41;98.83;98488.34;4988785;28;20084;-51
2022/04/05 06:34:03;;;;;;;8.77;6.05;;;;;;;5.38;99.02;98478.16;4991390;28;20038;-52
2022/04/05 06:36:29;;;;;;;8.38;6.15;;;;;;;5.43;98.73;98485.47;4991350;28;20046;-50
2022/04/05 06:38:55;;;;;;;9.57;5.95;;;;;;;5.51;98.12;98489.63;4995055;28;20041;-52
2022/04/05 06:41:20;;;;;;;8.32;5.88;;;;;;;5.54;97.70;98486.53;4989525;28;20042;-53
2022/04/05 06:43:46;;;;;;;10.63;5.85;;;;;;;5.61;97.50;98481.91;4988483;28;20034;-52
2022/04/05 06:46:11;;;;;;;9.63;6.18;;;;;;;5.65;97.30;98484.94;4993066;28;20105;-50
2022/04/05 06:48:37;;;;;;;10.75;5.68;;;;;;;5.63;97.65;98495.78;4993475;28;20398;-49
2022/04/05 06:51:02;;;;;;;7.85;6.03;;;;;;;5.72;97.40;98486.47;4988552;28;20053;-52
2022/04/05 06:53:28;;;;;;;8.10;5.85;;;;;;;5.75;97.12;98488.66;4992329;28;20034;-50
2022/04/05 06:55:53;;;;;;;8.70;5.07;;;;;;;5.79;97.64;98489.00;4985630;28;20125;-50
2022/04/05 06:58:19;;;;;;;11.32;6.10;;;;;;;5.77;97.11;98469.81;4990662;28;20046;-51
2022/04/05 07:00:45;;;;;;;8.63;5.75;;;;;;;5.85;96.92;98482.78;4992353;28;20041;-52
2022/04/05 07:03:10;;;;;;;8.73;5.68;;;;;;;5.90;96.93;98487.41;4993655;28;20652;-53
2022/04/05 07:05:36;;;;;;;8.30;6.05;;;;;;;5.97;96.80;98483.63;4991171;28;20043;-51
2022/04/05 07:08:02;;;;;;;7.70;5.45;;;;;;;6.05;96.06;98485.13;4990434;28;20140;-51
2022/04/05 07:10:27;;;;;;;7.43;5.57;;;;;;;6.05;95.29;98477.16;4988169;28;20408;-50
2022/04/05 07:12:53;;;;;;;7.18;5.32;;;;;;;6.02;94.90;98482.94;4996224;28;20048;-52
2022/04/05 07:15:18;;;;;;;6.30;4.63;;;;;;;6.09;94.93;98472.16;4990233;28;20125;-53
2022/04/05 07:17:44;;;;;;;7.70;5.55;;;;;;;6.19;94.82;98486.53;4995892;28;20033;-50
2022/04/05 07:20:10;;;;;;;8.77;5.57;;;;;;;6.23;94.42;98481.53;5000089;28;20042;-51
2022/04/05 07:22:36;;;;;;;7.00;5.25;;;;;;;6.40;93.83;98478.97;4991282;28;20471;-50
2022/04/05 07:25:02;;;;;;;7.22;5.22;;;;;;;6.63;92.77;98483.47;4995739;28;20030;-50
2022/04/05 07:27:29;;;;;;;7.55;4.85;;;;;;;6.67;92.66;98489.94;4995706;28;20057;-52
2022/04/05 07:29:54;;;;;;;6.32;4.10;;;;;;;6.61;91.72;98483.69;4993108;28;20618;-53
2022/04/05 07:32:20;;;;;;;6.40;4.60;;;;;;;6.76;92.21;98482.38;4992628;28;20065;-52
2022/04/05 07:34:45;;;;;;;6.18;4.70;;;;;;;6.70;92.31;98474.28;4994289;28;20393;-50
2022/04/05 07:37:11;;;;;;;6.57;4.80;;;;;;;6.74;92.02;98485.28;4989814;28;20477;-50
2022/04/05 07:39:38;;;;;;;6.78;5.00;;;;;;;6.78;91.62;98486.44;4991479;28;20651;-51
2022/04/05 07:42:03;;;;;;;6.70;4.20;;;;;;;6.74;92.16;98479.97;4996280;28;20098;-54
2022/04/05 07:44:29;;;;;;;7.25;5.00;;;;;;;6.80;91.84;98478.22;4990166;28;20425;-52
2022/04/05 07:46:54;;;;;;;7.57;5.07;;;;;;;6.87;91.82;98484.22;4989008;28;20049;-52
2022/04/05 07:49:20;;;;;;;6.32;4.82;;;;;;;6.90;91.63;98478.41;5004597;28;20088;-51
2022/04/05 07:51:45;;;;;;;7.10;4.97;;;;;;;6.89;92.22;98484.78;4993308;28;20038;-52
2022/04/05 07:54:11;;;;;;;9.73;5.25;;;;;;;6.82;92.64;98484.13;4996571;28;20395;-54
2022/04/05 07:56:36;;;;;;;7.95;5.30;;;;;;;7.09;91.18;98471.84;4992154;28;20476;-52
2022/04/05 07:59:02;;;;;;;7.40;5.28;;;;;;;7.35;90.98;98477.66;4998048;28;20041;-53
2022/04/05 08:01:29;;;;;;;7.40;4.97;;;;;;;7.44;90.27;98470.03;4996380;28;20045;-52
2022/04/05 08:03:55;;;;;;;7.45;4.95;;;;;;;7.25;89.83;98480.94;5000768;28;20025;-51
2022/04/05 08:06:20;;;;;;;8.05;5.03;;;;;;;7.38;90.41;98474.50;4994785;28;20046;-54
2022/04/05 08:08:46;;;;;;;7.43;5.53;;;;;;;7.44;90.19;98484.22;4995849;28;20040;-51
2022/04/05 08:11:11;;;;;;;9.23;5.25;;;;;;;7.34;91.08;98482.19;5000311;28;20068;-51
2022/04/05 08:13:37;;;;;;;8.23;5.65;;;;;;;7.48;90.22;98479.19;4994095;28;20026;-53
2022/04/05 08:16:02;;;;;;;7.50;5.25;;;;;;;7.52;89.63;98481.16;4995702;28;20515;-52
2022/04/05 08:18:27;;;;;;;6.40;4.90;;;;;;;7.39;90.99;98477.97;4992989;28;20026;-53
2022/04/05 08:20:54;;;;;;;9.77;5.50;;;;;;;7.52;90.44;98470.47;4994718;28;20073;-52
2022/04/05 08:23:20;;;;;;;7.75;5.32;;;;;;;7.51;90.62;98479.53;5001213;28;20030;-52
2022/04/05 08:25:45;;;;;;;7.10;4.95;;;;;;;7.47;89.83;98489.06;4990711;28;20085;-52
2022/04/05 08:28:10;;;;;;;8.95;5.53;;;;;;;7.46;90.55;98491.94;4990170;28;20046;-53
2022/04/05 08:30:36;;;;;;;11.27;5.40;;;;;;;7.39;90.42;98489.47;4995248;28;20034;-54
2022/04/05 08:33:01;;;;;;;8.27;5.00;;;;;;;7.40;90.25;98484.94;4998612;28;20034;-53
2022/04/05 08:35:27;;;;;;;7.13;5.30;;;;;;;7.35;90.85;98490.97;4992015;28;20042;-51
2022/04/05 08:37:54;;;;;;;9.52;5.40;;;;;;;7.43;90.54;98492.44;4996249;28;20038;-53
2022/04/05 08:40:20;;;;;;;9.27;5.30;;;;;;;7.54;90.26;98487.06;4999571;28;20038;-51
2022/04/05 08:42:48;;;;;;;9.18;5.88;;;;;;;7.37;90.74;98504.06;4989360;28;20058;-53
2022/04/05 08:45:14;;;;;;;6.82;5.07;;;;;;;7.24;91.23;98499.81;4989248;28;20030;-51
2022/04/05 08:47:59;;;;;;;7.53;5.20;;;;;;;7.29;91.48;98499.94;4995978;28;20026;-54
2022/04/05 08:50:29;;;;;;;8.40;5.45;;;;;;;7.21;91.55;98510.97;4996064;28;20141;-54
2022/04/05 08:52:56;;;;;;;8.18;4.78;;;;;;;7.28;91.38;98501.78;4998369;28;20069;-53
2022/04/05 08:55:21;;;;;;;6.20;4.47;;;;;;;7.22;91.51;98509.94;4988179;28;20484;-53
2022/04/05 08:57:47;;;;;;;6.88;4.85;;;;;;;7.15;92.21;98517.25;4993026;28;20030;-52
2022/04/05 09:00:14;;;;;;;8.02;5.38;;;;;;;7.33;92.22;98507.19;4997344;28;20451;-51
2022/04/05 09:02:50;;;;;;;7.57;5.38;;;;;;;7.34;92.68;98510.69;4996993;28;20026;-52
2022/04/05 09:05:28;;;;;;;8.00;5.28;;;;;;;7.51;91.49;98508.88;4993501;28;20122;-50
2022/04/05 09:07:55;;;;;;;7.13;4.72;;;;;;;7.53;90.61;98506.75;4995007;28;20416;-53
2022/04/05 09:10:20;;;;;;;10.18;4.75;;;;;;;7.77;90.40;98514.63;4992299;28;20073;-51
2022/04/05 09:12:47;;;;;;;6.50;4.45;;;;;;;8.13;88.68;98508.00;4995214;28;20066;-52
2022/04/05 09:15:18;;;;;;;9.20;4.68;;;;;;;8.08;88.42;98507.09;4988927;28;20460;-53
2022/04/05 09:17:46;;;;;;;7.00;4.50;;;;;;;8.25;89.01;98515.91;4998482;28;20034;-52
2022/04/05 09:20:15;;;;;;;9.95;4.35;;;;;;;8.36;87.42;98512.34;4996379;28;20038;-52
2022/04/05 09:22:41;;;;;;;7.47;4.05;;;;;;;8.26;88.22;98506.03;4995150;28;20481;-51
2022/04/05 09:25:08;;;;;;;5.60;3.72;;;;;;;8.26;87.48;98520.19;4990401;28;20038;-53
2022/04/05 09:27:49;;;;;;;6.25;4.15;;;;;;;8.51;87.37;98524.31;4987060;28;20050;-53
2022/04/05 09:30:20;;;;;;;5.10;3.80;;;;;;;8.34;89.06;98519.78;4992567;28;20508;-52
2022/04/05 09:32:48;;;;;;;4.25;2.85;;;;;;;8.23;88.21;98523.34;4989900;28;20080;-49
2022/04/05 09:35:15;;;;;;;5.72;3.13;;;;;;;8.49;87.08;98521.91;4994513;28;20791;-52
2022/04/05 09:37:41;;;;;;;4.53;3.00;;;;;;;8.36;87.73;98527.53;4988853;28;20035;-51
2022/04/05 09:40:15;;;;;;;6.70;3.13;;;;;;;8.55;87.34;98526.25;4992161;28;20381;-50
2022/04/05 09:43:01;;;;;;;7.95;5.20;;;;;;;8.72;85.83;98522.75;4984818;28;20559;-52
2022/04/05 09:45:53;;;;;;;8.02;5.93;;;;;;;9.21;84.12;98523.63;4991712;28;20531;-50
2022/04/05 09:48:23;;;;;;;5.07;3.40;;;;;;;9.33;83.34;98530.66;4991480;28;20488;-52
2022/04/05 09:51:01;;;;;;;5.85;4.00;;;;;;;9.95;80.58;98527.50;5000924;28;20484;-52
2022/04/05 09:53:27;;;;;;;5.80;3.28;;;;;;;9.83;80.01;98516.16;4993581;28;20510;-52
2022/04/05 09:56:13;;;;;;;6.13;4.05;;;;;;;9.69;81.32;98529.19;4997981;28;20053;-50
2022/04/05 09:58:49;;;;;;;22.05;18.02;;;;;;;9.76;81.88;98527.09;4999643;28;20067;-51
2022/04/05 10:01:16;;;;;;;4.65;3.25;;;;;;;9.59;82.21;98502.31;4998337;28;20052;-52
2022/04/05 10:03:44;;;;;;;4.57;3.38;;;;;;;9.81;81.02;98515.59;4990262;28;20100;-50
2022/04/05 10:06:09;;;;;;;5.75;3.60;;;;;;;9.50;82.41;98510.00;4986196;28;20452;-52
2022/04/05 10:08:36;;;;;;;5.07;3.60;;;;;;;9.33;83.01;98522.66;4994448;28;20040;-50
2022/04/05 10:11:02;;;;;;;11.52;9.65;;;;;;;9.07;84.78;98519.69;4995659;28;20050;-52
2022/04/05 10:13:28;;;;;;;7.28;4.95;;;;;;;9.17;84.71;98524.34;5000107;28;20132;-52
2022/04/05 10:15:54;;;;;;;5.15;3.75;;;;;;;9.16;84.37;98526.22;4989849;28;20049;-52
2022/04/05 10:18:20;;;;;;;7.28;3.85;;;;;;;8.98;85.17;98515.84;4991419;28;20444;-52
2022/04/05 10:20:47;;;;;;;6.03;3.80;;;;;;;9.02;85.04;98527.66;4991742;28;20046;-53
2022/04/05 10:23:12;;;;;;;8.88;6.20;;;;;;;9.26;84.53;98526.34;4993338;28;20167;-51
2022/04/05 10:25:41;;;;;;;4.93;3.55;;;;;;;9.41;83.61;98538.25;4985895;28;20321;-49
2022/04/05 10:28:06;;;;;;;5.30;3.00;;;;;;;9.44;83.35;98537.75;5013239;28;20524;-54
2022/04/05 10:30:43;;;;;;;4.35;2.85;;;;;;;9.82;82.86;98538.66;4993211;28;20045;-51
2022/04/05 10:33:14;;;;;;;6.82;4.07;;;;;;;10.24;82.67;98535.25;4990515;28;20061;-50
2022/04/05 10:35:53;;;;;;;3.97;2.63;;;;;;;10.54;81.72;98523.94;4976997;28;20116;-53
2022/04/05 10:38:19;;;;;;;3.28;2.22;;;;;;;10.66;81.03;98537.97;4996967;28;20041;-52
2022/04/05 10:41:17;;;;;;;6.78;2.53;;;;;;;10.78;79.77;98532.38;4993911;28;20101;-52
2022/04/05 10:43:43;;;;;;;5.10;2.70;;;;;;;11.59;77.30;98526.50;4993914;28;20038;-51
2022/04/05 10:46:09;;;;;;;5.75;3.20;;;;;;;12.39;75.56;98530.56;4987176;28;20043;-52
2022/04/05 10:48:34;;;;;;;14.52;8.13;;;;;;;12.27;74.56;98523.56;5000248;28;20064;-51
2022/04/05 10:51:00;;;;;;;15.20;6.63;;;;;;;11.47;75.43;98525.13;4989443;28;20047;-52
2022/04/05 10:53:32;;;;;;;5.93;3.30;;;;;;;12.05;75.80;98525.75;4999519;28;20037;-51
2022/04/05 10:56:04;;;;;;;15.05;6.80;;;;;;;12.70;73.30;98529.44;5003915;28;20516;-51
2022/04/05 10:58:48;;;;;;;6.50;3.90;;;;;;;12.41;74.98;98529.22;4996206;28;20551;-50
2022/04/05 11:01:17;;;;;;;3.72;2.28;;;;;;;11.93;75.92;98526.03;4989220;28;20177;-52
2022/04/05 11:03:45;;;;;;;3.40;2.42;;;;;;;12.13;76.11;98527.91;5001043;28;20101;-53
2022/04/05 11:06:11;;;;;;;3.50;2.40;;;;;;;11.61;77.75;98526.22;4992564;28;20050;-50
2022/04/05 11:08:36;;;;;;;3.03;2.22;;;;;;;11.44;77.61;98516.53;4988284;28;20034;-49
2022/04/05 11:11:04;;;;;;;4.45;2.80;;;;;;;11.35;79.00;98526.16;4990933;28;20050;-50
2022/04/05 11:13:35;;;;;;;3.83;2.47;;;;;;;11.44;78.76;98516.53;4992837;28;20048;-53
2022/04/05 11:16:01;;;;;;;4.10;2.75;;;;;;;11.26;81.22;98522.41;4990976;28;20055;-53
2022/04/05 11:18:28;;;;;;;7.72;2.72;;;;;;;11.20;80.67;98523.44;4992706;28;20081;-50
2022/04/05 11:20:54;;;;;;;4.28;2.72;;;;;;;10.51;80.73;98527.97;4991760;28;20547;-53
2022/04/05 11:23:36;;;;;;;4.40;2.60;;;;;;;10.06;84.36;98518.50;4970693;28;20317;-51
2022/04/05 11:26:32;;;;;;;4.40;3.10;;;;;;;9.86;85.42;98534.38;4991724;28;20053;-50
2022/04/05 11:28:58;;;;;;;4.18;3.17;;;;;;;9.88;85.27;98522.41;4994088;28;20046;-51
2022/04/05 11:31:35;;;;;;;6.50;3.10;;;;;;;9.67;85.81;98526.75;4990796;28;20124;-49
2022/04/05 11:34:00;;;;;;;5.18;3.15;;;;;;;9.80;86.76;98522.03;4994683;28;20038;-53
2022/04/05 11:36:26;;;;;;;4.70;3.28;;;;;;;9.65;87.01;98518.16;4993210;28;20045;-52